Time;durP1;ratioP1;P1;durP2;ratioP2;P2;SDS_P1;SDS_P2;PMS_P1;PMS_P2;Temp;Humidity;BMP_temperature;BMP_pressure;BME280_temperature;BME280_humidity;BME280_pressure;Samples;Min_cycle;Max_cycle;Signal;HPM_P1;HPM_P2
2023/06/07 00:00:59;;;;;;;12.93;5.30;;;13.20;99.90;;;;;;5037448;28;20049;-65
2023/06/07 00:03:26;;;;;;;14.57;4.97;;;13.10;99.90;;;;;;5036784;28;20069;-64
2023/06/07 00:05:52;;;;;;;9.68;5.72;;;13.10;99.90;;;;;;5029353;28;20050;-64
2023/06/07 00:08:20;;;;;;;11.60;5.18;;;13.00;99.90;;;;;;5013177;28;20041;-64
2023/06/07 00:10:46;;;;;;;14.50;5.88;;;13.00;99.90;;;;;;5018518;28;20049;-64
2023/06/07 00:13:11;;;;;;;14.65;5.32;;;13.00;99.90;;;;;;5034865;28;20035;-64
2023/06/07 00:15:37;;;;;;;15.07;5.32;;;13.00;99.90;;;;;;5019389;28;20048;-65
2023/06/07 00:18:02;;;;;;;11.82;5.43;;;12.90;99.90;;;;;;5011231;28;20033;-64
2023/06/07 00:20:29;;;;;;;9.70;5.60;;;12.90;99.90;;;;;;5030990;28;20490;-64
2023/06/07 00:22:58;;;;;;;11.75;5.45;;;12.80;99.90;;;;;;5014501;28;20550;-64
2023/06/07 00:25:24;;;;;;;10.43;5.00;;;12.80;99.90;;;;;;5042090;28;20032;-64
2023/06/07 00:27:50;;;;;;;12.55;5.72;;;12.80;99.90;;;;;;5019551;28;20042;-64
2023/06/07 00:30:18;;;;;;;12.63;5.75;;;12.70;99.90;;;;;;5035023;28;20037;-64
2023/06/07 00:32:44;;;;;;;12.25;4.75;;;12.70;99.90;;;;;;5012408;28;20079;-64
2023/06/07 00:35:11;;;;;;;13.10;5.50;;;12.70;99.90;;;;;;5041999;28;20701;-64
2023/06/07 00:37:37;;;;;;;11.88;5.70;;;12.60;99.90;;;;;;5032596;28;20049;-64
2023/06/07 00:40:04;;;;;;;13.32;5.60;;;12.60;99.90;;;;;;5036679;28;20028;-64
2023/06/07 00:42:31;;;;;;;11.23;5.50;;;12.60;99.90;;;;;;5008218;28;20128;-64
2023/06/07 00:44:56;;;;;;;13.38;5.70;;;12.60;99.90;;;;;;5040119;28;20053;-65
2023/06/07 00:47:22;;;;;;;13.27;5.85;;;12.50;99.90;;;;;;5032415;28;20070;-64
2023/06/07 00:49:48;;;;;;;12.13;5.13;;;12.50;99.90;;;;;;5027801;28;20052;-64
2023/06/07 00:52:14;;;;;;;13.25;5.60;;;12.50;99.90;;;;;;5032800;28;20030;-64
2023/06/07 00:54:40;;;;;;;11.30;5.65;;;12.40;99.90;;;;;;5030345;28;20049;-64
2023/06/07 00:57:06;;;;;;;12.65;5.60;;;12.40;99.90;;;;;;5011065;28;20407;-64
2023/06/07 00:59:32;;;;;;;10.25;5.22;;;12.30;99.90;;;;;;5010675;28;20488;-64
2023/06/07 01:01:57;;;;;;;9.88;5.60;;;12.30;99.90;;;;;;5025365;22;20040;-63
2023/06/07 01:04:24;;;;;;;16.55;5.75;;;12.20;99.90;;;;;;5021657;28;20037;-64
2023/06/07 01:06:53;;;;;;;12.35;5.47;;;12.20;99.90;;;;;;5010076;28;20488;-62
2023/06/07 01:09:20;;;;;;;8.60;5.43;;;12.20;99.90;;;;;;5040884;28;20489;-61
2023/06/07 01:11:52;;;;;;;13.95;5.10;;;12.20;99.90;;;;;;5008761;28;20066;-62
2023/06/07 01:14:21;;;;;;;11.45;5.53;;;12.20;99.90;;;;;;5033826;28;20044;-64
2023/06/07 01:16:50;;;;;;;9.18;5.03;;;12.10;99.90;;;;;;4991950;28;20037;-61
2023/06/07 01:19:28;;;;;;;15.02;5.85;;;12.10;99.90;;;;;;5009777;28;20048;-65
2023/06/07 01:22:04;;;;;;;13.95;5.60;;;12.10;99.90;;;;;;5012592;28;20045;-61
2023/06/07 01:24:30;;;;;;;11.35;5.47;;;12.00;99.90;;;;;;5019223;28;20049;-64
2023/06/07 01:26:57;;;;;;;9.88;5.35;;;12.00;99.90;;;;;;5027286;28;20052;-61
2023/06/07 01:29:25;;;;;;;11.30;5.47;;;12.00;99.90;;;;;;4994078;28;20061;-61
2023/06/07 01:31:53;;;;;;;14.18;6.03;;;11.90;99.90;;;;;;5007557;28;20531;-61
2023/06/07 01:34:20;;;;;;;14.02;5.93;;;11.90;99.90;;;;;;5015193;28;20037;-62
2023/06/07 01:36:47;;;;;;;15.55;5.90;;;11.90;99.90;;;;;;5010404;28;20092;-61
2023/06/07 01:39:14;;;;;;;10.52;5.95;;;12.00;99.90;;;;;;5012501;28;20041;-62
2023/06/07 01:41:41;;;;;;;10.70;5.50;;;11.90;99.90;;;;;;5011585;28;20391;-63
2023/06/07 01:44:08;;;;;;;11.27;6.18;;;11.90;99.90;;;;;;4999683;28;20107;-62
2023/06/07 01:46:34;;;;;;;14.25;5.95;;;11.90;99.90;;;;;;5027351;28;20029;-61
2023/06/07 01:49:00;;;;;;;12.18;5.88;;;11.90;99.90;;;;;;5013244;28;20550;-61
2023/06/07 01:51:26;;;;;;;12.40;6.45;;;11.90;99.90;;;;;;5015585;28;20108;-61
2023/06/07 01:53:51;;;;;;;13.32;5.90;;;11.90;99.90;;;;;;5026516;28;20451;-61
2023/06/07 01:56:31;;;;;;;11.02;5.72;;;11.90;99.90;;;;;;5012252;28;20033;-62
2023/06/07 01:59:07;;;;;;;11.23;5.75;;;12.00;99.90;;;;;;5007030;28;20041;-62
2023/06/07 02:01:49;;;;;;;12.55;5.72;;;11.90;99.90;;;;;;5011750;28;20100;-62
2023/06/07 02:04:19;;;;;;;12.10;6.18;;;11.90;99.90;;;;;;5005464;28;20095;-62
2023/06/07 02:06:46;;;;;;;16.08;6.43;;;11.90;99.90;;;;;;5009199;28;20049;-63
2023/06/07 02:09:14;;;;;;;10.98;5.65;;;12.20;99.90;;;;;;5025992;28;20080;-62
2023/06/07 02:11:41;;;;;;;10.73;5.95;;;11.90;99.90;;;;;;5018952;28;20049;-62
2023/06/07 02:14:08;;;;;;;14.15;6.07;;;11.90;99.90;;;;;;5013697;28;20213;-61
2023/06/07 02:16:37;;;;;;;14.48;6.25;;;12.00;99.90;;;;;;5028718;28;20476;-61
2023/06/07 02:19:07;;;;;;;12.13;6.10;;;12.00;99.90;;;;;;5029705;28;20029;-64
2023/06/07 02:21:37;;;;;;;12.82;6.80;;;12.10;99.90;;;;;;5010562;28;20037;-65
2023/06/07 02:24:05;;;;;;;13.68;6.25;;;12.10;99.90;;;;;;5006789;28;20361;-62
2023/06/07 02:26:32;;;;;;;14.52;7.50;;;12.10;99.90;;;;;;4994281;28;20037;-61
2023/06/07 02:28:58;;;;;;;17.38;6.75;;;12.20;99.90;;;;;;5028078;28;20549;-62
2023/06/07 02:31:24;;;;;;;16.83;6.15;;;12.20;99.90;;;;;;5033748;28;20038;-64
2023/06/07 02:33:50;;;;;;;14.57;6.50;;;12.20;99.90;;;;;;5030256;28;20038;-64
2023/06/07 02:36:17;;;;;;;16.40;6.65;;;12.20;99.90;;;;;;5009583;28;20069;-65
2023/06/07 02:38:43;;;;;;;15.65;6.75;;;12.30;99.90;;;;;;5038717;28;20029;-61
2023/06/07 02:41:09;;;;;;;13.40;5.97;;;12.30;99.90;;;;;;5012119;28;20049;-61
2023/06/07 02:43:36;;;;;;;13.82;6.25;;;12.30;99.90;;;;;;5032937;28;20042;-63
2023/06/07 02:46:02;;;;;;;13.68;6.28;;;12.30;99.90;;;;;;5021696;28;20049;-63
2023/06/07 02:48:28;;;;;;;15.77;7.00;;;12.30;99.90;;;;;;5014813;28;20179;-63
2023/06/07 02:50:53;;;;;;;26.83;7.03;;;12.30;99.90;;;;;;5035563;28;20350;-62
2023/06/07 02:53:19;;;;;;;11.40;6.03;;;12.40;99.90;;;;;;5021782;28;20475;-62
2023/06/07 02:55:44;;;;;;;14.65;6.50;;;12.40;99.90;;;;;;5023805;28;20045;-62
2023/06/07 02:58:10;;;;;;;14.55;5.93;;;12.40;99.90;;;;;;5019849;28;20025;-65
2023/06/07 03:00:35;;;;;;;17.27;6.70;;;12.40;99.90;;;;;;5029905;28;20048;-61
2023/06/07 03:03:01;;;;;;;15.88;6.90;;;12.40;99.90;;;;;;5023322;28;20056;-61
2023/06/07 03:05:28;;;;;;;16.00;6.75;;;12.40;99.90;;;;;;5014157;28;20135;-62
2023/06/07 03:07:56;;;;;;;12.02;6.45;;;12.40;99.90;;;;;;5030713;28;20041;-66
2023/06/07 03:10:22;;;;;;;11.65;6.40;;;12.40;99.90;;;;;;5037925;28;20112;-61
2023/06/07 03:12:48;;;;;;;13.95;6.45;;;12.40;99.90;;;;;;5035727;28;20120;-62
2023/06/07 03:15:13;;;;;;;13.55;6.50;;;12.40;99.90;;;;;;5010687;28;20030;-62
2023/06/07 03:17:41;;;;;;;13.88;6.70;;;12.40;99.90;;;;;;5037739;28;20072;-63
2023/06/07 03:20:08;;;;;;;15.80;7.10;;;12.40;99.90;;;;;;5017829;28;20414;-62
2023/06/07 03:22:36;;;;;;;13.88;6.85;;;12.40;99.90;;;;;;5011934;28;20042;-61
2023/06/07 03:25:03;;;;;;;13.73;6.72;;;12.40;99.90;;;;;;5033820;28;20045;-62
2023/06/07 03:27:32;;;;;;;19.75;7.00;;;12.40;99.90;;;;;;5034466;28;20041;-65
2023/06/07 03:29:59;;;;;;;14.40;6.60;;;12.40;99.90;;;;;;5033894;28;20111;-62
2023/06/07 03:32:25;;;;;;;18.13;7.07;;;12.40;99.90;;;;;;5031006;28;20488;-61
2023/06/07 03:34:51;;;;;;;14.25;6.95;;;12.40;99.90;;;;;;5029198;28;20040;-62
2023/06/07 03:37:16;;;;;;;17.52;6.25;;;12.40;99.90;;;;;;5028063;28;20040;-61
2023/06/07 03:39:42;;;;;;;15.70;7.07;;;12.50;99.90;;;;;;5034553;28;20056;-61
2023/06/07 03:42:08;;;;;;;14.73;6.53;;;12.50;99.90;;;;;;5012036;28;20044;-62
2023/06/07 03:44:33;;;;;;;16.70;7.38;;;12.50;99.90;;;;;;5034011;28;20399;-65
2023/06/07 03:46:59;;;;;;;17.35;6.78;;;12.50;99.90;;;;;;5030228;28;20407;-62
2023/06/07 03:49:25;;;;;;;15.23;6.90;;;12.50;99.90;;;;;;5017261;28;20075;-61
2023/06/07 03:51:51;;;;;;;14.75;7.05;;;12.50;99.90;;;;;;5039373;28;20042;-62
2023/06/07 03:54:16;;;;;;;17.33;7.00;;;12.50;99.90;;;;;;5035986;28;20029;-62
2023/06/07 03:56:42;;;;;;;17.58;7.15;;;12.50;99.90;;;;;;5035910;28;20056;-62
2023/06/07 03:59:08;;;;;;;18.20;6.65;;;12.50;99.90;;;;;;5028444;28;20120;-64
2023/06/07 04:01:34;;;;;;;17.65;6.78;;;12.50;99.90;;;;;;5016557;28;20049;-63
2023/06/07 04:04:00;;;;;;;15.35;6.30;;;12.50;99.90;;;;;;5021133;28;20056;-62
2023/06/07 04:06:25;;;;;;;12.27;6.15;;;12.50;99.90;;;;;;5028223;28;20041;-62
2023/06/07 04:08:52;;;;;;;13.57;5.85;;;12.50;99.90;;;;;;5026941;28;20043;-62
2023/06/07 04:11:19;;;;;;;14.40;6.43;;;12.50;99.90;;;;;;5021518;28;20045;-62
2023/06/07 04:13:44;;;;;;;14.13;6.20;;;12.60;99.90;;;;;;5004232;28;20053;-62
2023/06/07 04:16:11;;;;;;;14.43;6.30;;;12.60;99.90;;;;;;5023263;28;20036;-64
2023/06/07 04:18:36;;;;;;;15.90;6.35;;;12.60;99.90;;;;;;5030916;28;20037;-64
2023/06/07 04:21:02;;;;;;;20.67;6.47;;;12.60;99.90;;;;;;5033298;28;20092;-63
2023/06/07 04:23:27;;;;;;;15.15;6.38;;;12.60;99.90;;;;;;5018480;28;20533;-62
2023/06/07 04:25:54;;;;;;;15.43;6.70;;;12.60;99.90;;;;;;5023561;28;20076;-63
2023/06/07 04:28:24;;;;;;;14.65;6.68;;;12.70;99.90;;;;;;5005928;28;20038;-62
2023/06/07 04:30:52;;;;;;;23.08;8.00;;;12.70;99.90;;;;;;5008368;28;20037;-62
2023/06/07 04:33:20;;;;;;;12.70;5.93;;;12.70;99.90;;;;;;4995627;28;20075;-62
2023/06/07 04:35:46;;;;;;;16.83;6.10;;;12.70;99.90;;;;;;5024946;28;20042;-62
2023/06/07 04:38:20;;;;;;;16.33;6.88;;;12.80;99.90;;;;;;5019279;28;20033;-62
2023/06/07 04:40:49;;;;;;;13.63;6.38;;;12.80;99.90;;;;;;5008248;28;20052;-62
2023/06/07 04:43:18;;;;;;;13.75;6.72;;;12.80;99.90;;;;;;5028586;28;20052;-62
2023/06/07 04:45:46;;;;;;;12.70;6.03;;;12.80;99.90;;;;;;5035540;28;20041;-62
2023/06/07 04:48:12;;;;;;;16.15;6.35;;;12.90;99.90;;;;;;5018945;28;20505;-62
2023/06/07 04:50:41;;;;;;;16.25;6.40;;;12.90;99.90;;;;;;5028931;28;20037;-62
2023/06/07 04:53:08;;;;;;;17.13;6.35;;;12.90;99.90;;;;;;5034287;28;20087;-62
2023/06/07 04:55:34;;;;;;;15.68;6.25;;;12.90;99.90;;;;;;5015665;28;20048;-62
2023/06/07 04:58:04;;;;;;;15.15;6.72;;;13.00;99.90;;;;;;5036138;28;20052;-62
2023/06/07 05:00:30;;;;;;;18.45;6.60;;;13.00;99.90;;;;;;5015811;28;20056;-62
2023/06/07 05:02:57;;;;;;;14.13;6.43;;;13.00;99.90;;;;;;5021740;28;20399;-62
2023/06/07 05:05:23;;;;;;;17.05;6.50;;;13.10;99.90;;;;;;5007325;28;20041;-62
2023/06/07 05:07:49;;;;;;;19.33;5.85;;;13.10;99.90;;;;;;5029162;28;20163;-62
2023/06/07 05:10:17;;;;;;;17.52;6.32;;;13.20;99.90;;;;;;5029292;28;20040;-62
2023/06/07 05:12:43;;;;;;;14.88;5.97;;;13.20;99.90;;;;;;5026576;28;20050;-62
2023/06/07 05:15:09;;;;;;;13.20;5.75;;;13.30;99.90;;;;;;5026478;28;20372;-64
2023/06/07 05:17:36;;;;;;;14.73;5.72;;;13.30;99.90;;;;;;5008615;28;20043;-62
2023/06/07 05:20:06;;;;;;;16.25;6.13;;;13.30;99.90;;;;;;5014798;28;20514;-62
2023/06/07 05:22:31;;;;;;;12.95;5.70;;;13.40;99.90;;;;;;5014088;28;20037;-63
2023/06/07 05:24:57;;;;;;;21.10;6.15;;;13.40;99.90;;;;;;5019812;28;20087;-62
2023/06/07 05:27:22;;;;;;;16.38;5.57;;;13.40;99.90;;;;;;5035552;28;20399;-62
2023/06/07 05:29:48;;;;;;;16.20;5.90;;;13.50;99.90;;;;;;5012120;28;20047;-62
2023/06/07 05:32:13;;;;;;;18.33;5.72;;;13.50;99.90;;;;;;5030433;28;20046;-62
2023/06/07 05:34:39;;;;;;;19.48;5.07;;;13.60;99.90;;;;;;5043818;28;20383;-62
2023/06/07 05:37:05;;;;;;;16.13;5.25;;;13.60;99.90;;;;;;5015794;28;20037;-62
2023/06/07 05:39:31;;;;;;;15.07;5.50;;;13.70;99.90;;;;;;5022701;28;20384;-62
2023/06/07 05:41:56;;;;;;;14.63;5.32;;;13.70;99.90;;;;;;5017766;28;20037;-62
2023/06/07 05:44:22;;;;;;;20.85;5.55;;;13.70;99.90;;;;;;5012336;28;20132;-62
2023/06/07 05:46:47;;;;;;;15.23;5.18;;;13.80;99.90;;;;;;5029856;28;20041;-61
2023/06/07 05:49:13;;;;;;;13.50;4.85;;;13.80;99.90;;;;;;5029618;28;20032;-62
2023/06/07 05:51:38;;;;;;;17.13;5.38;;;13.80;99.90;;;;;;5043972;28;20163;-62
2023/06/07 05:54:06;;;;;;;14.38;4.63;;;13.90;99.90;;;;;;5037157;28;20318;-63
2023/06/07 05:56:32;;;;;;;15.75;4.65;;;14.00;99.90;;;;;;5019114;28;20069;-63
2023/06/07 05:58:58;;;;;;;12.50;4.40;;;14.10;99.90;;;;;;5027639;28;20476;-63
2023/06/07 06:01:23;;;;;;;14.73;4.70;;;14.10;99.90;;;;;;5027829;28;20073;-62
2023/06/07 06:03:49;;;;;;;14.70;5.07;;;14.10;99.90;;;;;;5022883;28;20067;-63
2023/06/07 06:06:16;;;;;;;17.17;5.50;;;14.20;99.90;;;;;;5030486;28;20496;-62
2023/06/07 06:08:42;;;;;;;19.02;5.40;;;14.20;99.90;;;;;;5016175;28;20047;-62
2023/06/07 06:11:12;;;;;;;14.02;4.70;;;14.20;99.90;;;;;;5022059;28;20138;-63
2023/06/07 06:13:39;;;;;;;17.50;5.25;;;14.30;99.90;;;;;;5017317;28;20044;-63
2023/06/07 06:16:05;;;;;;;19.77;5.45;;;14.30;99.90;;;;;;5025243;28;20127;-63
2023/06/07 06:18:31;;;;;;;14.80;4.93;;;14.40;99.90;;;;;;5048221;28;20029;-63
2023/06/07 06:20:57;;;;;;;13.40;4.75;;;14.40;99.90;;;;;;5033533;28;20048;-63
2023/06/07 06:23:24;;;;;;;15.10;4.78;;;14.50;99.90;;;;;;5037878;28;20037;-62
2023/06/07 06:25:50;;;;;;;17.55;4.95;;;14.50;99.90;;;;;;5025483;28;20037;-62
2023/06/07 06:28:16;;;;;;;13.90;4.80;;;14.60;99.90;;;;;;5023645;28;20045;-62
2023/06/07 06:30:42;;;;;;;15.55;5.75;;;14.70;99.90;;;;;;5006781;28;20040;-62
2023/06/07 06:33:07;;;;;;;18.33;5.90;;;14.70;99.90;;;;;;5022352;28;20076;-62
2023/06/07 06:35:33;;;;;;;16.02;5.10;;;14.80;99.90;;;;;;5029113;28;20075;-61
2023/06/07 06:38:00;;;;;;;11.98;4.82;;;14.70;99.90;;;;;;5045048;28;20103;-62
2023/06/07 06:40:26;;;;;;;16.10;5.50;;;14.80;99.90;;;;;;5019348;28;20103;-62
2023/06/07 06:42:52;;;;;;;14.38;5.10;;;14.80;99.90;;;;;;5044873;28;20087;-62
2023/06/07 06:45:18;;;;;;;18.77;5.75;;;14.90;99.90;;;;;;5039035;28;20470;-62
2023/06/07 06:47:44;;;;;;;15.85;5.18;;;14.90;99.90;;;;;;5026393;28;20037;-62
2023/06/07 06:50:13;;;;;;;16.50;6.10;;;15.00;99.90;;;;;;5029605;28;20052;-62
2023/06/07 06:52:40;;;;;;;16.42;5.60;;;15.00;99.90;;;;;;5028836;28;20037;-62
2023/06/07 06:55:06;;;;;;;13.40;4.93;;;15.00;99.90;;;;;;5029089;28;20064;-62
2023/06/07 06:57:32;;;;;;;15.95;4.70;;;15.00;99.90;;;;;;5030389;28;20037;-62
2023/06/07 06:59:59;;;;;;;17.00;4.78;;;15.00;99.90;;;;;;5012582;28;20041;-62
2023/06/07 07:02:25;;;;;;;18.25;5.10;;;15.10;99.90;;;;;;5033340;28;20025;-62
2023/06/07 07:04:51;;;;;;;15.13;4.93;;;15.10;99.90;;;;;;5022681;28;20250;-62
2023/06/07 07:07:16;;;;;;;15.82;5.05;;;15.00;99.90;;;;;;5006856;28;20041;-62
2023/06/07 07:09:42;;;;;;;11.30;4.72;;;15.00;99.90;;;;;;5012242;28;20091;-62
2023/06/07 07:12:08;;;;;;;17.98;5.32;;;15.00;99.90;;;;;;5015346;28;20399;-62
2023/06/07 07:14:33;;;;;;;11.75;4.80;;;15.00;99.90;;;;;;5015790;28;20041;-62
2023/06/07 07:16:59;;;;;;;14.80;4.75;;;15.00;99.90;;;;;;5025599;28;20092;-62
2023/06/07 07:19:24;;;;;;;14.48;5.15;;;15.00;99.90;;;;;;5030208;28;20037;-62
2023/06/07 07:21:51;;;;;;;15.57;4.55;;;15.00;99.90;;;;;;5038292;28;20343;-62
2023/06/07 07:24:17;;;;;;;14.15;4.60;;;15.00;99.90;;;;;;5004685;28;20381;-62
2023/06/07 07:26:43;;;;;;;12.50;4.63;;;15.00;99.90;;;;;;5020004;28;20040;-62
2023/06/07 07:29:09;;;;;;;12.50;4.45;;;15.10;99.90;;;;;;5023904;28;20529;-62
2023/06/07 07:31:34;;;;;;;11.60;4.32;;;15.10;99.90;;;;;;5013200;28;20041;-62
2023/06/07 07:34:01;;;;;;;14.82;4.60;;;15.10;99.90;;;;;;5022304;28;20412;-62
2023/06/07 07:36:27;;;;;;;15.60;4.47;;;15.10;99.90;;;;;;5007992;28;20033;-62
2023/06/07 07:38:53;;;;;;;11.63;4.53;;;15.20;99.90;;;;;;5014602;28;20040;-62
2023/06/07 07:41:19;;;;;;;14.60;5.20;;;15.20;99.90;;;;;;5030397;28;20483;-62
2023/06/07 07:43:45;;;;;;;14.70;4.75;;;15.30;99.90;;;;;;5021118;28;20045;-62
2023/06/07 07:46:12;;;;;;;13.07;4.93;;;15.30;99.90;;;;;;5031220;28;20079;-62
2023/06/07 07:48:38;;;;;;;15.68;4.40;;;15.40;99.90;;;;;;5016416;28;20090;-62
2023/06/07 07:51:04;;;;;;;15.13;4.55;;;15.40;99.90;;;;;;5017399;28;20519;-62
2023/06/07 07:53:30;;;;;;;12.73;4.22;;;15.50;99.90;;;;;;5018600;22;20546;-62
2023/06/07 07:55:56;;;;;;;14.45;4.40;;;15.50;99.90;;;;;;5029793;28;20137;-62
2023/06/07 07:58:21;;;;;;;12.10;4.30;;;15.50;99.90;;;;;;5033511;28;20029;-62
2023/06/07 08:00:47;;;;;;;12.13;4.30;;;15.60;99.90;;;;;;5030234;28;20060;-62
2023/06/07 08:03:12;;;;;;;14.07;4.93;;;15.60;99.90;;;;;;5030143;28;20052;-62
2023/06/07 08:05:38;;;;;;;14.05;4.10;;;15.70;99.90;;;;;;5039888;28;20419;-62
2023/06/07 08:08:05;;;;;;;14.50;4.63;;;15.70;99.90;;;;;;5027183;28;20036;-62
2023/06/07 08:10:31;;;;;;;12.85;3.97;;;15.80;99.90;;;;;;5036182;28;20077;-62
2023/06/07 08:12:56;;;;;;;16.58;4.82;;;16.00;99.90;;;;;;5018074;28;20073;-62
2023/06/07 08:15:22;;;;;;;12.73;5.07;;;16.10;99.90;;;;;;5001985;28;20337;-62
2023/06/07 08:17:48;;;;;;;13.18;4.85;;;16.20;99.90;;;;;;5032794;28;20033;-62
2023/06/07 08:20:13;;;;;;;15.70;4.72;;;16.40;99.90;;;;;;5018735;28;20045;-62
2023/06/07 08:22:39;;;;;;;14.07;4.55;;;16.50;99.90;;;;;;5006012;28;20478;-62
2023/06/07 08:25:05;;;;;;;14.00;3.97;;;16.70;99.90;;;;;;5030912;28;20075;-62
2023/06/07 08:27:31;;;;;;;13.55;4.45;;;17.00;99.90;;;;;;5015683;28;20037;-62
2023/06/07 08:29:57;;;;;;;10.27;4.40;;;17.20;99.90;;;;;;5021933;28;20408;-62
2023/06/07 08:32:22;;;;;;;10.68;4.60;;;17.40;99.90;;;;;;5029601;28;20072;-62
2023/06/07 08:34:48;;;;;;;11.40;4.45;;;17.60;99.90;;;;;;5028153;28;20044;-62
2023/06/07 08:37:13;;;;;;;14.30;4.45;;;17.80;99.90;;;;;;5027691;28;20523;-62
2023/06/07 08:39:39;;;;;;;16.30;4.60;;;18.00;99.90;;;;;;5027643;28;20026;-62
2023/06/07 08:42:05;;;;;;;11.57;4.15;;;18.20;99.90;;;;;;5029426;28;20037;-62
2023/06/07 08:44:31;;;;;;;15.18;4.63;;;18.40;99.90;;;;;;5037441;28;20438;-62
2023/06/07 08:46:57;;;;;;;13.32;4.90;;;18.70;99.90;;;;;;5044265;28;20047;-62
2023/06/07 08:49:24;;;;;;;12.65;4.95;;;19.00;99.90;;;;;;5026474;28;20125;-62
2023/06/07 08:51:51;;;;;;;13.50;4.47;;;19.20;99.90;;;;;;5027057;28;20487;-62
2023/06/07 08:54:20;;;;;;;9.68;4.18;;;19.30;99.90;;;;;;5024436;28;20033;-62
2023/06/07 08:56:47;;;;;;;13.50;4.57;;;19.50;99.90;;;;;;5033677;28;20038;-62
2023/06/07 08:59:14;;;;;;;11.50;4.30;;;19.80;99.90;;;;;;5038457;28;20056;-62
2023/06/07 09:01:41;;;;;;;16.38;4.53;;;19.90;99.90;;;;;;5011810;28;20048;-63
2023/06/07 09:04:07;;;;;;;7.47;3.88;;;20.00;99.90;;;;;;5034457;28;20037;-62
2023/06/07 09:06:34;;;;;;;11.43;4.40;;;20.10;99.90;;;;;;5032252;28;20404;-62
2023/06/07 09:09:02;;;;;;;11.70;4.45;;;20.30;99.90;;;;;;5022334;28;20049;-62
2023/06/07 09:11:27;;;;;;;13.45;4.60;;;20.40;99.90;;;;;;5038782;28;20048;-62
2023/06/07 09:13:56;;;;;;;11.52;4.35;;;20.60;99.70;;;;;;5040454;28;20041;-62
2023/06/07 09:16:22;;;;;;;13.77;4.82;;;20.70;99.40;;;;;;5038284;28;20507;-62
2023/06/07 09:18:53;;;;;;;10.43;4.50;;;20.80;99.50;;;;;;5031008;28;20372;-62
2023/06/07 09:21:30;;;;;;;9.43;4.45;;;20.90;99.20;;;;;;5044342;28;20086;-63
2023/06/07 09:23:58;;;;;;;10.73;4.35;;;21.10;98.40;;;;;;5029041;28;20045;-63
2023/06/07 09:26:38;;;;;;;10.45;4.40;;;21.40;98.40;;;;;;5032072;28;20041;-62
2023/06/07 09:29:08;;;;;;;10.02;4.60;;;21.60;97.20;;;;;;5046586;28;20399;-62
2023/06/07 09:31:34;;;;;;;9.98;4.45;;;21.80;97.50;;;;;;5037377;28;20045;-63
2023/06/07 09:34:22;;;;;;;10.45;4.47;;;21.90;97.50;;;;;;5032596;28;20029;-62
2023/06/07 09:36:58;;;;;;;9.93;4.30;;;22.10;96.10;;;;;;5037742;28;20095;-62
2023/06/07 09:39:26;;;;;;;9.70;4.15;;;22.10;96.10;;;;;;5037967;28;20537;-62
2023/06/07 09:41:54;;;;;;;11.88;4.28;;;22.20;96.50;;;;;;5038418;28;20045;-62
2023/06/07 09:44:23;;;;;;;11.05;4.15;;;22.40;96.30;;;;;;5038363;28;20048;-63
2023/06/07 09:46:50;;;;;;;11.00;4.13;;;22.50;95.70;;;;;;5027562;28;20045;-62
2023/06/07 09:49:28;;;;;;;8.50;3.95;;;22.70;95.50;;;;;;5044067;28;20048;-62
2023/06/07 09:51:54;;;;;;;10.15;4.43;;;22.80;94.60;;;;;;5042229;28;20046;-63
2023/06/07 09:54:39;;;;;;;8.70;3.70;;;23.00;94.80;;;;;;5044367;28;20030;-62
2023/06/07 09:57:07;;;;;;;10.45;3.78;;;23.10;93.60;;;;;;5020124;28;20041;-62
2023/06/07 09:59:35;;;;;;;9.80;3.85;;;23.10;94.00;;;;;;5042795;28;20522;-62
2023/06/07 10:02:01;;;;;;;8.07;3.63;;;23.10;93.50;;;;;;5024600;28;20045;-62
2023/06/07 10:04:27;;;;;;;10.00;4.13;;;23.30;93.60;;;;;;5036815;28;20025;-62
2023/06/07 10:06:57;;;;;;;8.50;3.92;;;23.40;93.50;;;;;;5035716;28;20048;-62
2023/06/07 10:09:28;;;;;;;12.02;3.90;;;23.40;93.00;;;;;;5042417;28;20037;-62
2023/06/07 10:11:55;;;;;;;8.43;4.03;;;23.50;92.70;;;;;;5026286;28;20041;-62
2023/06/07 10:14:28;;;;;;;14.13;4.13;;;23.70;92.60;;;;;;5033312;28;20045;-62
2023/06/07 10:17:03;;;;;;;11.10;3.80;;;23.70;92.00;;;;;;5038367;28;20049;-63
2023/06/07 10:19:40;;;;;;;12.77;3.97;;;23.90;91.80;;;;;;5039088;28;20033;-62
2023/06/07 10:22:15;;;;;;;11.18;3.80;;;24.00;91.50;;;;;;5048956;28;20118;-63
2023/06/07 10:25:02;;;;;;;11.98;3.83;;;24.20;91.80;;;;;;5044303;28;20029;-63
2023/06/07 10:27:38;;;;;;;9.18;4.13;;;24.30;90.80;;;;;;5038248;28;20033;-62
2023/06/07 10:30:09;;;;;;;10.15;3.90;;;24.30;90.60;;;;;;5033625;28;20076;-62
2023/06/07 10:32:38;;;;;;;10.35;3.95;;;24.30;90.60;;;;;;5038693;28;20037;-62
2023/06/07 10:35:11;;;;;;;10.35;4.47;;;24.30;90.60;;;;;;5023992;28;20337;-62
2023/06/07 10:37:37;;;;;;;7.90;3.80;;;24.40;90.10;;;;;;5039371;28;20033;-63
2023/06/07 10:40:15;;;;;;;10.05;4.53;;;24.50;89.90;;;;;;5041775;28;20045;-63
2023/06/07 10:42:43;;;;;;;10.38;4.53;;;24.60;89.20;;;;;;5033725;28;20041;-63
2023/06/07 10:45:14;;;;;;;8.55;4.50;;;24.50;88.00;;;;;;5041626;28;20044;-62
2023/06/07 10:47:41;;;;;;;;;;;24.40;87.50;;;;;;5026243;28;20046;-63
2023/06/07 10:50:07;;;;;;;13.05;4.40;;;24.30;84.60;;;;;;5033266;28;19964;-63
2023/06/07 10:52:32;;;;;;;9.52;4.10;;;24.30;86.90;;;;;;5037207;28;20053;-62
2023/06/07 10:54:58;;;;;;;9.23;4.20;;;24.30;87.10;;;;;;5033995;28;20053;-63
2023/06/07 10:57:32;;;;;;;9.95;3.90;;;24.40;87.50;;;;;;5023334;28;20450;-62
2023/06/07 11:00:28;;;;;;;11.73;4.25;;;24.60;86.70;;;;;;5029312;28;20421;-63
2023/06/07 11:03:10;;;;;;;12.07;4.20;;;24.60;85.90;;;;;;5040764;28;20037;-63
2023/06/07 11:06:08;;;;;;;9.45;4.15;;;24.70;85.90;;;;;;5040151;28;20041;-63
2023/06/07 11:08:36;;;;;;;9.65;3.95;;;24.80;84.70;;;;;;5028812;28;20067;-63
2023/06/07 11:11:05;;;;;;;7.60;4.10;;;24.90;86.40;;;;;;5046554;28;20043;-63
2023/06/07 11:13:42;;;;;;;9.18;3.83;;;25.10;86.10;;;;;;5040619;28;20037;-63
2023/06/07 11:16:22;;;;;;;8.50;4.00;;;25.10;84.40;;;;;;5042896;28;20044;-63
2023/06/07 11:19:11;;;;;;;10.88;4.85;;;25.10;84.30;;;;;;5042306;28;20049;-62
2023/06/07 11:21:58;;;;;;;8.70;4.43;;;25.10;84.00;;;;;;5042563;28;20052;-62
2023/06/07 11:24:24;;;;;;;10.20;4.70;;;25.30;82.90;;;;;;5026783;28;20052;-62
2023/06/07 11:26:50;;;;;;;10.65;5.05;;;25.30;83.40;;;;;;5022818;28;20123;-63
2023/06/07 11:29:17;;;;;;;8.98;4.68;;;25.30;83.40;;;;;;5034462;28;20042;-63
2023/06/07 11:31:57;;;;;;;9.85;4.78;;;25.40;83.20;;;;;;5040223;28;20565;-63
2023/06/07 11:34:26;;;;;;;10.30;4.03;;;25.40;82.70;;;;;;5038700;28;20111;-63
2023/06/07 11:37:08;;;;;;;7.90;4.22;;;25.60;82.60;;;;;;5046321;28;20414;-62
2023/06/07 11:39:34;;;;;;;10.60;4.25;;;25.70;81.00;;;;;;5047083;28;20112;-63
2023/06/07 11:42:01;;;;;;;9.38;3.97;;;25.70;80.80;;;;;;5039654;28;20045;-63
2023/06/07 11:44:28;;;;;;;8.70;3.78;;;25.70;80.60;;;;;;5032058;28;20041;-62
2023/06/07 11:46:54;;;;;;;9.68;4.63;;;25.80;80.60;;;;;;5029975;28;20053;-62
2023/06/07 11:49:23;;;;;;;7.78;4.10;;;25.80;80.40;;;;;;5042078;28;20124;-62
2023/06/07 11:51:49;;;;;;;8.23;4.18;;;25.90;79.50;;;;;;5014192;28;20045;-62
2023/06/07 11:54:14;;;;;;;8.20;4.18;;;25.90;79.30;;;;;;5028808;28;20033;-63
2023/06/07 11:56:42;;;;;;;9.52;4.22;;;25.80;79.40;;;;;;5039261;28;20655;-63
2023/06/07 11:59:10;;;;;;;7.43;3.55;;;25.80;79.10;;;;;;5036878;28;20076;-63
2023/06/07 12:01:39;;;;;;;8.27;3.90;;;25.80;78.90;;;;;;5028146;28;20091;-63
2023/06/07 12:04:09;;;;;;;9.95;4.93;;;25.90;79.00;;;;;;5034799;28;20108;-63
2023/06/07 12:06:35;;;;;;;6.60;3.70;;;25.90;79.00;;;;;;5028718;28;20099;-63
2023/06/07 12:09:01;;;;;;;6.45;3.60;;;25.80;79.20;;;;;;5043449;28;20037;-63
2023/06/07 12:11:27;;;;;;;8.82;4.10;;;25.90;78.60;;;;;;5036094;28;20048;-63
2023/06/07 12:13:53;;;;;;;7.68;3.60;;;25.90;78.30;;;;;;5048327;28;20397;-63
2023/06/07 12:16:22;;;;;;;10.30;4.28;;;25.80;78.30;;;;;;5019068;28;20043;-63
2023/06/07 12:18:48;;;;;;;8.32;4.30;;;25.80;78.40;;;;;;5031689;28;20041;-63
2023/06/07 12:21:18;;;;;;;9.88;4.45;;;25.90;78.70;;;;;;5031446;28;20033;-63
2023/06/07 12:23:48;;;;;;;8.65;3.45;;;26.10;78.30;;;;;;5031671;28;20045;-62
2023/06/07 12:26:16;;;;;;;8.13;3.97;;;26.30;77.60;;;;;;5031642;28;20053;-62
2023/06/07 12:28:43;;;;;;;7.70;3.75;;;26.40;77.40;;;;;;5027156;28;20037;-62
2023/06/07 12:31:18;;;;;;;9.25;4.25;;;26.50;77.30;;;;;;5013167;28;20053;-62
2023/06/07 12:34:16;;;;;;;7.32;3.45;;;26.70;77.50;;;;;;5033612;28;20117;-63
2023/06/07 12:36:42;;;;;;;9.32;4.13;;;27.00;76.70;;;;;;4973820;28;20481;-63
2023/06/07 12:39:13;;;;;;;8.95;4.30;;;27.00;75.80;;;;;;5014757;28;20043;-62
2023/06/07 12:41:40;;;;;;;7.32;3.88;;;27.00;75.10;;;;;;5012693;28;20475;-63